Time;durP1;ratioP1;P1;durP2;ratioP2;P2;SDS_P1;SDS_P2;PMS_P1;PMS_P2;Temp;Humidity;BMP_temperature;BMP_pressure;BME280_temperature;BME280_humidity;BME280_pressure;Samples;Min_cycle;Max_cycle;Signal;HPM_P1;HPM_P2
2021/01/13 00:00:19;;;;;;;11.75;6.20;;;;;;;-0.69;77.87;96857.58;1785097;79;21113;-74
2021/01/13 00:02:47;;;;;;;21.87;11.88;;;;;;;-0.68;78.03;96854.70;1785242;79;21094;-74
2021/01/13 00:05:14;;;;;;;26.60;13.28;;;;;;;-0.74;78.07;96850.31;1785260;80;21151;-74
2021/01/13 00:07:44;;;;;;;24.45;12.82;;;;;;;-0.73;77.96;96855.92;1785210;79;21378;-74
2021/01/13 00:10:11;;;;;;;22.62;11.73;;;;;;;-0.70;77.85;96862.09;1785145;80;21187;-73
2021/01/13 00:12:37;;;;;;;36.17;17.37;;;;;;;-0.68;77.76;96875.18;1785113;79;21035;-74
2021/01/13 00:15:07;;;;;;;26.33;15.25;;;;;;;-0.67;77.77;96880.27;1785260;79;20972;-74
2021/01/13 00:17:34;;;;;;;17.75;10.38;;;;;;;-0.67;78.08;96882.92;1783785;79;21163;-74
2021/01/13 00:20:00;;;;;;;21.42;11.63;;;;;;;-0.69;78.54;96881.52;1785275;80;21106;-73
2021/01/13 00:22:26;;;;;;;23.25;13.03;;;;;;;-0.70;78.35;96879.91;1784963;79;21289;-73
2021/01/13 00:24:53;;;;;;;25.17;13.45;;;;;;;-0.72;78.50;96878.81;1785117;80;21095;-74
2021/01/13 00:27:22;;;;;;;16.40;8.68;;;;;;;-0.71;78.46;96888.94;1785085;79;21546;-73
2021/01/13 00:29:53;;;;;;;19.07;11.83;;;;;;;-0.69;78.38;96886.31;1785139;79;21487;-73
2021/01/13 00:32:19;;;;;;;20.10;11.15;;;;;;;-0.76;78.86;96891.51;1785122;79;21097;-73
2021/01/13 00:34:46;;;;;;;21.87;11.83;;;;;;;-0.78;78.89;96886.92;1785252;80;22010;-73
2021/01/13 00:37:13;;;;;;;18.73;10.63;;;;;;;-0.77;78.77;96893.86;1785081;79;21130;-73
2021/01/13 00:39:39;;;;;;;20.25;10.45;;;;;;;-0.81;79.58;96904.69;1785169;80;21122;-73
2021/01/13 00:42:06;;;;;;;11.60;6.45;;;;;;;-0.84;79.52;96905.17;1754882;80;21542;-73
2021/01/13 00:44:32;;;;;;;22.15;12.33;;;;;;;-0.81;79.55;96913.48;1785217;80;21158;-73
2021/01/13 00:46:58;;;;;;;21.75;12.85;;;;;;;-0.93;80.27;96913.50;1785139;80;21522;-73
2021/01/13 00:49:24;;;;;;;20.43;9.73;;;;;;;-0.95;79.97;96916.89;1785008;79;21086;-73
2021/01/13 00:51:50;;;;;;;15.43;8.35;;;;;;;-0.93;80.18;96916.17;1785139;80;21511;-73
2021/01/13 00:54:16;;;;;;;15.10;6.83;;;;;;;-0.92;80.50;96926.28;1785071;79;21047;-73
2021/01/13 00:56:46;;;;;;;19.73;11.10;;;;;;;-0.93;80.24;96930.80;1785167;80;21122;-73
2021/01/13 00:59:12;;;;;;;19.60;11.03;;;;;;;-0.96;80.20;96935.23;1785085;79;22121;-73
2021/01/13 01:01:40;;;;;;;23.98;14.30;;;;;;;-0.97;80.84;96938.94;1785154;80;21134;-73
2021/01/13 01:04:06;;;;;;;28.83;14.13;;;;;;;-1.00;80.84;96945.25;1785025;79;21409;-73
2021/01/13 01:06:32;;;;;;;17.30;10.82;;;;;;;-1.02;81.09;96945.48;1785155;80;21138;-73
2021/01/13 01:08:59;;;;;;;17.30;10.78;;;;;;;-1.01;81.12;96942.30;1785150;79;21010;-73
2021/01/13 01:11:29;;;;;;;21.90;10.23;;;;;;;-1.02;81.16;96946.81;1785300;80;21244;-73
2021/01/13 01:13:55;;;;;;;11.68;5.90;;;;;;;-1.04;81.56;96952.86;1785196;79;21130;-73
2021/01/13 01:16:21;;;;;;;18.50;10.30;;;;;;;-0.97;80.96;96947.44;1785378;80;21145;-73
2021/01/13 01:18:48;;;;;;;17.95;10.23;;;;;;;-1.00;81.05;96939.93;1754817;80;21047;-73
2021/01/13 01:21:14;;;;;;;19.32;10.40;;;;;;;-1.03;81.17;96945.17;1785306;80;21139;-73
2021/01/13 01:23:40;;;;;;;20.00;10.32;;;;;;;-0.99;81.00;96956.17;1791541;79;21200;-73
2021/01/13 01:26:06;;;;;;;17.87;10.82;;;;;;;-0.98;80.72;96963.91;1799725;79;21130;-73
2021/01/13 01:28:32;;;;;;;16.07;10.08;;;;;;;-0.97;80.71;96958.88;1799750;78;21117;-73
2021/01/13 01:30:58;;;;;;;18.75;9.95;;;;;;;-0.92;80.45;96973.63;1799783;79;21106;-73
2021/01/13 01:33:24;;;;;;;13.70;7.03;;;;;;;-0.90;80.34;96976.05;1799839;78;21450;-73
2021/01/13 01:35:51;;;;;;;10.23;5.83;;;;;;;-0.83;81.09;96986.58;1799787;79;21196;-73
2021/01/13 01:38:18;;;;;;;8.93;5.45;;;;;;;-0.69;80.87;96986.61;1799759;78;21412;-73
2021/01/13 01:40:44;;;;;;;8.43;4.47;;;;;;;-0.54;80.92;97000.78;1799872;79;21086;-73
2021/01/13 01:43:10;;;;;;;8.73;4.87;;;;;;;-0.42;80.56;96998.40;1799807;78;21395;-73
2021/01/13 01:45:36;;;;;;;6.35;3.90;;;;;;;-0.24;80.50;96987.31;1799917;79;21154;-73
2021/01/13 01:48:29;;;;;;;10.72;5.50;;;;;;;-0.14;79.98;96996.83;1799746;78;21566;-73
2021/01/13 01:50:59;;;;;;;10.85;5.58;;;;;;;-0.02;79.53;96997.59;1799837;79;21105;-74
2021/01/13 01:53:46;;;;;;;8.10;4.87;;;;;;;0.07;79.14;97002.02;1799803;78;21072;-74
2021/01/13 01:56:25;;;;;;;10.28;5.70;;;;;;;0.12;79.01;96994.12;1798619;79;21137;-73
2021/01/13 01:59:06;;;;;;;10.50;4.95;;;;;;;0.17;78.79;96996.88;1799887;78;21145;-73
2021/01/13 02:01:37;;;;;;;8.65;5.58;;;;;;;0.18;78.75;96994.00;1799837;79;21922;-73
2021/01/13 02:04:24;;;;;;;7.00;4.72;;;;;;;0.23;78.51;96990.59;1799649;78;21463;-73
2021/01/13 02:07:19;;;;;;;14.58;7.45;;;;;;;0.22;78.47;96990.31;1799616;79;21118;-73
2021/01/13 02:09:46;;;;;;;8.40;5.05;;;;;;;0.21;78.19;96984.19;1799742;79;21062;-73
2021/01/13 02:12:13;;;;;;;9.03;5.08;;;;;;;0.18;77.99;96984.67;1799857;78;21105;-73
2021/01/13 02:14:41;;;;;;;12.28;5.65;;;;;;;0.19;78.00;96989.47;1799817;79;22095;-73
2021/01/13 02:17:09;;;;;;;9.43;5.92;;;;;;;0.19;77.63;96988.14;1799637;78;21118;-73
2021/01/13 02:19:59;;;;;;;11.80;6.53;;;;;;;0.17;77.73;96991.05;1799793;79;21088;-73
2021/01/13 02:22:26;;;;;;;14.38;7.67;;;;;;;0.17;77.69;96995.05;1799062;78;21494;-73
2021/01/13 02:25:13;;;;;;;11.03;6.55;;;;;;;0.11;77.51;96993.33;1799662;79;21078;-73
2021/01/13 02:28:06;;;;;;;8.95;5.28;;;;;;;0.03;77.49;96987.05;1799783;78;21978;-74
2021/01/13 02:30:45;;;;;;;8.35;5.40;;;;;;;0.02;77.40;96996.61;1799684;79;21113;-74
2021/01/13 02:33:41;;;;;;;;;;;;;;;0.07;77.43;96994.02;1802198;78;21137;-74
2021/01/13 02:36:20;;;;;;;11.18;6.45;;;;;;;0.04;77.55;97000.64;1799789;79;20201;-74
2021/01/13 02:38:52;;;;;;;11.35;6.58;;;;;;;0.06;77.59;97005.73;1799723;78;21026;-73
2021/01/13 02:41:20;;;;;;;11.28;7.03;;;;;;;0.04;77.13;97005.16;1799811;79;22031;-73
2021/01/13 02:43:56;;;;;;;13.00;6.30;;;;;;;0.02;77.23;97013.39;1799842;78;21031;-73
2021/01/13 02:46:59;;;;;;;13.38;8.40;;;;;;;0.02;77.18;97004.07;1799860;79;21503;-74
2021/01/13 02:49:33;;;;;;;12.63;7.37;;;;;;;-0.03;77.13;96996.78;1799750;78;21078;-73
2021/01/13 02:52:00;;;;;;;13.10;7.60;;;;;;;-0.06;77.17;96993.80;1798630;79;21070;-73
2021/01/13 02:54:35;;;;;;;13.32;7.30;;;;;;;-0.06;77.20;96993.27;1799666;78;21248;-74
2021/01/13 02:57:19;;;;;;;13.18;9.98;;;;;;;-0.09;77.10;96984.92;1756551;80;21380;-74
2021/01/13 02:59:48;;;;;;;10.68;6.10;;;;;;;-0.08;77.01;96992.70;1780728;80;21070;-74
2021/01/13 03:02:14;;;;;;;11.57;6.00;;;;;;;-0.08;77.08;96991.89;1781104;79;21498;-73
2021/01/13 03:04:41;;;;;;;10.60;5.95;;;;;;;-0.11;76.75;96991.83;1756510;80;21051;-73
2021/01/13 03:07:12;;;;;;;5.08;2.77;;;;;;;-0.07;77.02;96994.84;1780820;79;22028;-73
2021/01/13 03:09:42;;;;;;;9.20;5.25;;;;;;;-0.02;76.68;97002.39;1780765;80;21035;-73
2021/01/13 03:12:21;;;;;;;8.83;4.70;;;;;;;0.05;76.82;96995.59;1780806;79;21055;-73
2021/01/13 03:14:56;;;;;;;10.45;4.37;;;;;;;0.08;76.53;96998.30;1780832;80;21134;-74
2021/01/13 03:17:36;;;;;;;7.62;3.70;;;;;;;0.12;76.48;97009.59;1780762;79;21079;-73
2021/01/13 03:20:28;;;;;;;7.97;4.53;;;;;;;0.13;76.28;97003.22;1780851;80;21199;-74
2021/01/13 03:23:25;;;;;;;8.40;4.97;;;;;;;0.12;76.39;97008.26;1780752;79;21082;-74
2021/01/13 03:26:00;;;;;;;7.47;4.12;;;;;;;0.15;76.28;97009.11;1780763;80;21123;-73
2021/01/13 03:28:30;;;;;;;5.00;3.15;;;;;;;0.18;76.32;97017.17;1780714;79;21681;-75
2021/01/13 03:30:57;;;;;;;11.10;3.70;;;;;;;0.20;76.29;97017.20;1736891;81;21100;-75
2021/01/13 03:33:34;;;;;;;9.50;4.87;;;;;;;0.21;76.14;97011.35;1762111;80;21282;-73
2021/01/13 03:36:03;;;;;;;16.17;7.87;;;;;;;0.22;76.29;97014.30;1760824;81;21072;-74
2021/01/13 03:38:30;;;;;;;9.20;5.40;;;;;;;0.26;76.20;97016.79;1736341;81;21147;-74
2021/01/13 03:41:03;;;;;;;9.03;5.40;;;;;;;0.24;76.13;97013.01;1762162;81;21509;-74
2021/01/13 03:43:38;;;;;;;17.05;9.20;;;;;;;0.27;76.19;97015.21;1762102;80;21097;-73
2021/01/13 03:46:09;;;;;;;10.68;6.58;;;;;;;0.28;75.99;97020.02;1762188;81;21954;-73
2021/01/13 03:48:51;;;;;;;8.73;4.00;;;;;;;0.33;75.89;97018.76;1762040;80;21132;-73
2021/01/13 03:51:45;;;;;;;6.37;3.70;;;;;;;0.32;75.73;97016.34;1762202;81;21174;-73
2021/01/13 03:54:11;;;;;;;5.30;2.80;;;;;;;0.33;75.51;97008.63;1762240;81;21556;-74
2021/01/13 03:56:49;;;;;;;5.33;3.25;;;;;;;0.28;75.05;97004.84;1762181;81;21128;-73
2021/01/13 03:59:17;;;;;;;21.10;8.40;;;;;;;0.32;75.33;97007.02;1760980;80;21160;-74
2021/01/13 04:01:52;;;;;;;10.13;5.67;;;;;;;0.34;74.70;96996.91;1736648;81;21127;-74
2021/01/13 04:04:27;;;;;;;7.75;3.95;;;;;;;0.32;74.54;96996.35;1736476;81;21447;-73
2021/01/13 04:07:01;;;;;;;7.33;4.12;;;;;;;0.32;75.01;96991.02;1762157;81;21092;-74
2021/01/13 04:09:30;;;;;;;4.75;2.25;;;;;;;0.29;74.78;96988.32;1762085;80;21553;-73
2021/01/13 04:12:12;;;;;;;5.87;3.30;;;;;;;0.21;73.78;96990.84;1762255;81;21239;-73
2021/01/13 04:14:47;;;;;;;9.98;4.25;;;;;;;0.22;74.44;96996.98;1762084;81;21052;-74
2021/01/13 04:17:14;;;;;;;5.35;3.00;;;;;;;0.21;74.66;97005.50;1760730;80;21123;-74
2021/01/13 04:19:43;;;;;;;5.85;3.20;;;;;;;0.20;74.69;97011.88;1762186;81;21061;-74
2021/01/13 04:22:11;;;;;;;;;;;;;;;0.22;74.63;97020.96;1764734;80;21465;-74
2021/01/13 04:24:40;;;;;;;9.88;5.30;;;;;;;0.20;74.71;97017.73;1764516;81;21265;-73
2021/01/13 04:27:07;;;;;;;7.37;4.30;;;;;;;0.20;74.87;97017.20;1767459;81;21513;-73
2021/01/13 04:29:34;;;;;;;8.05;4.85;;;;;;;0.12;75.01;97020.25;1767253;81;21132;-73
2021/01/13 04:32:00;;;;;;;5.70;3.17;;;;;;;0.11;75.34;97023.16;1767274;81;21171;-73
2021/01/13 04:34:27;;;;;;;6.97;4.05;;;;;;;0.11;75.55;97021.30;1767315;79;21016;-73
2021/01/13 04:36:53;;;;;;;5.45;3.42;;;;;;;0.12;75.55;97020.25;1767313;81;21202;-73
2021/01/13 04:39:19;;;;;;;10.65;4.15;;;;;;;0.15;75.65;97025.61;1767152;79;21097;-73
2021/01/13 04:42:08;;;;;;;7.72;3.98;;;;;;;0.17;75.80;97030.17;1767301;81;21112;-73
2021/01/13 04:44:45;;;;;;;6.70;4.12;;;;;;;0.19;75.83;97037.44;1767458;81;21120;-74
2021/01/13 04:47:11;;;;;;;8.95;4.15;;;;;;;0.19;75.96;97052.09;1767471;79;21116;-74
2021/01/13 04:49:38;;;;;;;9.55;4.70;;;;;;;0.15;76.28;97065.05;1767424;81;21189;-74
2021/01/13 04:52:17;;;;;;;6.20;3.87;;;;;;;0.09;76.58;97067.88;1767389;81;21124;-74
2021/01/13 04:54:45;;;;;;;;;;;;;;;0.05;76.29;97062.19;1745217;81;21120;-74
2021/01/13 04:57:23;;;;;;;7.00;2.57;;;;;;;-0.06;76.48;97076.36;1767801;79;20232;-74
2021/01/13 05:00:12;;;;;;;4.50;2.95;;;;;;;-0.04;75.70;97079.06;1766016;81;21104;-74
2021/01/13 05:03:03;;;;;;;5.62;3.02;;;;;;;-0.07;75.46;97076.07;1767428;79;21102;-73
2021/01/13 05:05:30;;;;;;;9.48;4.12;;;;;;;-0.10;74.76;97086.65;1766725;81;21183;-73
2021/01/13 05:08:27;;;;;;;8.20;3.60;;;;;;;-0.11;74.61;97095.69;1767611;79;21056;-73
2021/01/13 05:10:57;;;;;;;8.45;4.15;;;;;;;-0.09;74.63;97099.44;1767497;81;21111;-73
2021/01/13 05:13:24;;;;;;;7.25;4.55;;;;;;;-0.07;74.73;97100.05;1766431;79;21064;-73
2021/01/13 05:15:56;;;;;;;8.23;3.83;;;;;;;-0.08;74.65;97101.09;1767431;81;21988;-73
2021/01/13 05:18:52;;;;;;;7.97;4.75;;;;;;;-0.12;74.53;97095.92;1767331;79;21135;-73
2021/01/13 05:21:24;;;;;;;22.42;13.65;;;;;;;-0.16;74.15;97112.09;1767388;81;21478;-74
2021/01/13 05:23:53;;;;;;;10.40;9.30;;;;;;;-0.22;75.29;97110.36;1767375;79;21100;-74
2021/01/13 05:26:22;;;;;;;7.28;4.58;;;;;;;-0.30;75.57;97113.66;1751035;81;21466;-74
2021/01/13 05:29:38;;;;;;;8.75;3.92;;;;;;;-0.41;76.14;97117.66;1750491;80;22067;-74
2021/01/13 05:32:06;;;;;;;5.97;2.87;;;;;;;-0.48;76.24;97119.63;1750760;82;21510;-73
2021/01/13 05:34:35;;;;;;;6.00;3.52;;;;;;;-0.59;76.52;97138.54;1750689;82;21537;-73
2021/01/13 05:37:17;;;;;;;9.13;3.67;;;;;;;-0.60;76.08;97130.23;1721061;82;21144;-73
2021/01/13 05:39:47;;;;;;;6.08;3.22;;;;;;;-0.61;74.92;97129.43;1750699;82;21148;-73
2021/01/13 05:42:15;;;;;;;6.72;3.87;;;;;;;-0.72;74.42;97128.09;1750606;80;21145;-73
2021/01/13 05:44:42;;;;;;;7.27;3.23;;;;;;;-0.73;74.63;97143.25;1750857;82;21840;-73
2021/01/13 05:47:31;;;;;;;6.47;2.98;;;;;;;-0.68;74.12;97130.09;1750761;80;21100;-73
2021/01/13 05:49:58;;;;;;;9.73;3.83;;;;;;;-0.66;73.80;97144.48;1750848;82;21042;-73
2021/01/13 05:52:32;;;;;;;7.87;2.47;;;;;;;-0.69;73.33;97142.27;1750698;80;21138;-73
2021/01/13 05:54:59;;;;;;;5.42;3.27;;;;;;;-0.69;73.32;97144.41;1750662;82;21204;-74
2021/01/13 05:57:25;;;;;;;5.17;2.37;;;;;;;-0.71;72.94;97157.65;1750639;80;21108;-74
2021/01/13 05:59:52;;;;;;;4.37;2.75;;;;;;;-0.68;73.43;97154.55;1750781;82;21124;-74
2021/01/13 06:02:19;;;;;;;8.03;4.10;;;;;;;-0.77;74.76;97164.72;1750669;80;21097;-74
2021/01/13 06:04:47;;;;;;;9.95;4.47;;;;;;;-0.76;75.21;97173.51;1750780;81;21470;-74
2021/01/13 06:07:22;;;;;;;7.67;2.83;;;;;;;-0.74;75.09;97164.77;1751010;80;21198;-74
2021/01/13 06:09:55;;;;;;;13.55;4.05;;;;;;;-0.80;75.93;97173.13;1750610;82;21037;-73
2021/01/13 06:12:22;;;;;;;14.85;4.83;;;;;;;-0.74;75.65;97180.21;1750694;80;21140;-73
2021/01/13 06:14:50;;;;;;;16.97;8.33;;;;;;;-0.78;75.82;97185.68;1750675;81;21061;-73
2021/01/13 06:17:27;;;;;;;18.80;10.70;;;;;;;-0.73;75.55;97183.69;1750678;80;21057;-73
2021/01/13 06:19:55;;;;;;;9.13;4.42;;;;;;;-0.73;75.48;97195.66;1750756;81;21363;-73
2021/01/13 06:22:32;;;;;;;7.23;4.13;;;;;;;-0.72;75.55;97195.94;1750874;80;21152;-73
2021/01/13 06:25:02;;;;;;;9.03;5.30;;;;;;;-0.73;75.48;97206.30;1750591;80;21014;-73
2021/01/13 06:27:58;;;;;;;13.20;5.67;;;;;;;-0.69;75.44;97205.59;1750751;80;21184;-73
2021/01/13 06:30:33;;;;;;;9.40;3.42;;;;;;;-0.71;75.54;97220.98;1750685;81;21487;-74
2021/01/13 06:33:09;;;;;;;7.08;4.30;;;;;;;-0.72;75.49;97211.38;1749948;80;21212;-73
2021/01/13 06:35:53;;;;;;;9.55;4.50;;;;;;;-0.72;75.41;97214.05;1748048;82;21089;-73
2021/01/13 06:38:58;;;;;;;7.22;4.80;;;;;;;-0.72;75.47;97221.22;1749601;80;21057;-73
2021/01/13 06:41:25;;;;;;;5.05;3.50;;;;;;;-0.80;75.23;97216.22;1750668;82;21144;-73
2021/01/13 06:44:05;;;;;;;9.03;5.30;;;;;;;-0.81;75.41;97232.70;1721436;82;21560;-73
2021/01/13 06:46:33;;;;;;;10.75;3.87;;;;;;;-0.85;75.21;97242.19;1750733;82;21198;-73
2021/01/13 06:49:20;;;;;;;14.58;4.90;;;;;;;-0.87;75.11;97240.25;1750593;80;21045;-73
2021/01/13 06:51:49;;;;;;;6.17;2.30;;;;;;;-0.87;75.22;97254.88;1750738;82;21118;-73
2021/01/13 06:54:18;;;;;;;11.43;6.67;;;;;;;-0.78;75.23;97245.54;1750855;80;21114;-74
2021/01/13 06:56:50;;;;;;;16.10;6.55;;;;;;;-0.80;75.46;97246.81;1750504;81;21116;-73
2021/01/13 06:59:17;;;;;;;5.22;2.67;;;;;;;-0.79;75.45;97249.24;1750697;80;21974;-74
2021/01/13 07:01:57;;;;;;;10.38;6.03;;;;;;;-0.70;75.16;97249.73;1750601;82;21123;-74
2021/01/13 07:04:25;;;;;;;8.13;4.80;;;;;;;-0.74;73.50;97246.73;1750598;80;21073;-74
2021/01/13 07:07:06;;;;;;;12.05;3.90;;;;;;;-0.68;73.89;97254.33;1750743;82;21132;-74
2021/01/13 07:09:37;;;;;;;13.03;6.83;;;;;;;-0.59;72.98;97259.63;1750762;82;21160;-73
2021/01/13 07:12:20;;;;;;;13.65;6.80;;;;;;;-0.61;72.60;97259.02;1749747;82;21215;-73
2021/01/13 07:14:50;;;;;;;13.55;4.37;;;;;;;-0.57;71.66;97263.67;1750597;81;21077;-73
2021/01/13 07:17:23;;;;;;;8.33;4.00;;;;;;;-0.53;71.53;97259.22;1750700;80;21080;-73
2021/01/13 07:19:52;;;;;;;4.65;2.33;;;;;;;-0.51;71.27;97274.43;1750672;81;21513;-74
2021/01/13 07:22:20;;;;;;;6.50;3.87;;;;;;;-0.55;68.54;97261.30;1750871;80;21101;-74
2021/01/13 07:24:47;;;;;;;9.77;2.80;;;;;;;-0.46;70.90;97274.58;1751781;81;21198;-73
2021/01/13 07:27:13;;;;;;;10.10;4.20;;;;;;;-0.47;70.15;97265.78;1767342;79;21529;-74
2021/01/13 07:29:40;;;;;;;15.13;6.05;;;;;;;-0.40;70.29;97265.16;1767315;81;21096;-74
2021/01/13 07:32:08;;;;;;;12.13;7.17;;;;;;;-0.39;68.94;97273.44;1767395;81;21124;-74
2021/01/13 07:34:43;;;;;;;13.35;5.00;;;;;;;-0.42;68.89;97275.23;1767353;81;21493;-74
2021/01/13 07:37:13;;;;;;;14.83;4.67;;;;;;;-0.36;70.67;97276.16;1767282;79;21271;-73
2021/01/13 07:40:17;;;;;;;6.00;3.30;;;;;;;-0.32;70.65;97281.34;1766803;81;21123;-74
2021/01/13 07:42:45;;;;;;;11.65;5.30;;;;;;;-0.28;70.47;97273.17;1766598;79;21544;-73
2021/01/13 07:45:16;;;;;;;5.85;3.22;;;;;;;-0.25;70.26;97274.58;1767323;81;21053;-73
2021/01/13 07:47:50;;;;;;;6.62;2.80;;;;;;;-0.33;70.17;97289.03;1767319;79;21112;-74
2021/01/13 07:50:18;;;;;;;9.48;4.40;;;;;;;-0.23;71.44;97299.12;1767296;81;21248;-74
2021/01/13 07:52:51;;;;;;;10.75;4.00;;;;;;;-0.24;71.71;97301.50;1767306;79;21091;-74
2021/01/13 07:55:23;;;;;;;10.55;4.62;;;;;;;-0.24;72.19;97304.16;1767307;81;21438;-73
2021/01/13 07:57:54;;;;;;;9.60;4.37;;;;;;;-0.26;72.53;97301.70;1767351;79;21081;-74
2021/01/13 08:00:36;;;;;;;6.97;3.92;;;;;;;-0.36;73.16;97304.92;1742406;81;21037;-75
2021/01/13 08:03:57;;;;;;;14.20;6.53;;;;;;;-0.23;72.78;97301.27;1767286;79;21965;-73
2021/01/13 08:06:32;;;;;;;16.35;6.08;;;;;;;-0.17;72.21;97307.52;1767254;81;21108;-74
2021/01/13 08:09:08;;;;;;;7.33;3.67;;;;;;;-0.18;71.35;97286.73;1767275;79;21044;-73
2021/01/13 08:12:09;;;;;;;10.93;3.60;;;;;;;-0.23;71.21;97300.45;1767349;81;21104;-74
2021/01/13 08:15:27;;;;;;;14.73;5.50;;;;;;;-0.12;72.07;97291.67;1767413;81;21116;-74
2021/01/13 08:18:27;;;;;;;11.55;4.95;;;;;;;-0.01;72.56;97298.86;1767541;79;22055;-74
2021/01/13 08:26:30;;;;;;;10.95;5.62;;;;;;;-0.05;73.62;97305.17;1767302;81;21037;-73
2021/01/13 08:28:58;;;;;;;14.25;6.78;;;;;;;-0.03;73.40;97301.76;1767303;79;21397;-73
2021/01/13 08:31:26;;;;;;;24.55;10.35;;;;;;;0.01;73.49;97295.99;1741461;81;21295;-73
2021/01/13 08:34:07;;;;;;;21.27;10.35;;;;;;;0.07;73.30;97289.72;1767461;79;21099;-73
2021/01/13 08:36:36;;;;;;;22.80;11.68;;;;;;;0.07;73.57;97293.20;1767278;81;21136;-73
2021/01/13 08:39:09;;;;;;;28.00;19.82;;;;;;;0.18;73.42;97292.41;1766865;79;21128;-73
2021/01/13 08:41:36;;;;;;;98.50;61.60;;;;;;;0.34;73.31;97290.89;1767279;81;21123;-74
2021/01/13 08:44:06;;;;;;;76.77;47.73;;;;;;;0.51;73.07;97287.84;1767306;79;22093;-74
2021/01/13 08:46:40;;;;;;;56.55;32.13;;;;;;;0.50;72.84;97289.38;1767253;81;21147;-74
2021/01/13 08:49:06;;;;;;;17.50;7.83;;;;;;;0.51;72.58;97293.66;1765105;79;21060;-73
2021/01/13 08:51:34;;;;;;;11.38;6.60;;;;;;;0.55;71.68;97288.98;1767313;81;21108;-72
2021/01/13 08:54:21;;;;;;;11.50;6.45;;;;;;;0.60;71.33;97287.45;1767363;79;21028;-72
2021/01/13 08:56:59;;;;;;;17.20;8.98;;;;;;;0.62;69.27;97278.20;1747670;81;21275;-73
2021/01/13 08:59:36;;;;;;;22.52;9.65;;;;;;;0.73;70.81;97285.89;1767388;79;21120;-73
2021/01/13 09:02:11;;;;;;;13.72;5.37;;;;;;;0.80;69.90;97285.24;1766793;81;21516;-74
2021/01/13 09:04:43;;;;;;;20.75;8.45;;;;;;;0.97;69.93;97283.46;1766970;81;21092;-74
2021/01/13 09:07:10;;;;;;;9.40;5.00;;;;;;;1.10;68.88;97298.38;1767212;79;21559;-74
2021/01/13 09:09:36;;;;;;;11.35;4.45;;;;;;;0.96;68.18;97289.04;1767249;81;21362;-74
2021/01/13 09:12:27;;;;;;;16.27;6.60;;;;;;;0.91;69.56;97301.73;1767331;81;21096;-74
2021/01/13 09:15:18;;;;;;;16.87;7.70;;;;;;;0.89;70.02;97305.17;1767282;81;21088;-73
2021/01/13 09:17:56;;;;;;;15.40;7.58;;;;;;;0.84;70.25;97299.72;1767348;79;21092;-73
2021/01/13 09:20:31;;;;;;;19.30;10.88;;;;;;;0.94;70.26;97293.28;1767410;81;21076;-73
2021/01/13 09:23:03;;;;;;;16.48;7.87;;;;;;;1.08;70.46;97294.62;1767287;79;22071;-73
2021/01/13 09:25:31;;;;;;;16.97;9.18;;;;;;;1.15;70.51;97299.83;1767046;81;21084;-73
2021/01/13 09:28:00;;;;;;;16.80;7.67;;;;;;;1.25;70.22;97297.88;1767525;79;21048;-74
2021/01/13 09:30:42;;;;;;;11.95;5.90;;;;;;;1.15;70.44;97297.69;1767400;81;21170;-74
2021/01/13 09:33:17;;;;;;;11.95;5.05;;;;;;;1.05;69.90;97305.77;1767402;79;21492;-74
2021/01/13 09:35:47;;;;;;;15.98;8.10;;;;;;;0.83;70.89;97299.43;1767483;81;21199;-74
2021/01/13 09:38:28;;;;;;;27.00;16.55;;;;;;;0.76;70.98;97295.55;1766977;79;21116;-74
2021/01/13 09:41:00;;;;;;;19.20;10.60;;;;;;;0.76;71.00;97286.73;1767400;81;21513;-73
2021/01/13 09:43:44;;;;;;;17.42;8.20;;;;;;;0.79;71.28;97287.09;1767474;79;21056;-74
2021/01/13 09:46:29;;;;;;;22.22;9.73;;;;;;;0.99;70.94;97285.36;1767516;81;21422;-74
2021/01/13 09:49:06;;;;;;;15.98;8.35;;;;;;;1.06;70.85;97286.05;1767394;79;21201;-74
2021/01/13 09:51:38;;;;;;;12.82;6.60;;;;;;;1.03;70.69;97289.20;1766364;81;21584;-73
2021/01/13 09:54:07;;;;;;;16.87;9.18;;;;;;;1.02;70.90;97284.88;1766808;79;21108;-73
2021/01/13 09:56:35;;;;;;;11.38;6.65;;;;;;;1.01;70.92;97273.92;1767470;81;25702;-74
2021/01/13 09:59:06;;;;;;;14.07;8.25;;;;;;;1.11;70.84;97286.66;1767384;79;21147;-74
2021/01/13 10:01:36;;;;;;;40.83;23.07;;;;;;;1.25;70.54;97285.86;1767362;81;21320;-73
2021/01/13 10:04:11;;;;;;;18.20;10.60;;;;;;;1.35;70.28;97290.87;1767247;79;21104;-73
2021/01/13 10:06:42;;;;;;;13.48;4.85;;;;;;;1.26;69.54;97283.48;1767379;81;21038;-74
2021/01/13 10:09:12;;;;;;;14.60;5.60;;;;;;;1.30;69.92;97284.64;1767342;79;21081;-73
2021/01/13 10:11:39;;;;;;;7.28;3.77;;;;;;;1.29;69.13;97280.35;1767318;81;21409;-73
2021/01/13 10:14:08;;;;;;;11.30;6.47;;;;;;;1.22;68.85;97282.34;1767452;79;22026;-73
2021/01/13 10:16:45;;;;;;;11.05;4.40;;;;;;;1.16;68.66;97285.44;1767284;81;21096;-73
2021/01/13 10:19:12;;;;;;;15.60;4.62;;;;;;;1.18;68.53;97280.66;1767379;79;21544;-73
2021/01/13 10:21:41;;;;;;;11.33;3.37;;;;;;;1.13;68.99;97277.39;1767423;81;21084;-73
2021/01/13 10:24:11;;;;;;;36.17;29.23;;;;;;;1.16;69.31;97277.95;1767319;79;21132;-74
2021/01/13 10:26:47;;;;;;;33.65;22.25;;;;;;;1.20;69.15;97281.75;1763513;81;21208;-74
2021/01/13 10:29:17;;;;;;;14.40;10.20;;;;;;;1.22;68.78;97277.81;1759817;80;21077;-74
2021/01/13 10:31:43;;;;;;;6.87;3.25;;;;;;;1.23;68.53;97279.44;1759343;81;21528;-74
2021/01/13 10:34:12;;;;;;;6.72;3.60;;;;;;;1.25;68.33;97270.66;1759781;80;21104;-74
2021/01/13 10:36:51;;;;;;;10.40;6.47;;;;;;;1.27;68.16;97271.23;1759928;81;21414;-74
2021/01/13 10:39:27;;;;;;;13.05;4.37;;;;;;;1.30;68.50;97272.10;1760015;80;26552;-74
2021/01/13 10:42:05;;;;;;;10.05;4.92;;;;;;;1.33;68.23;97268.95;1759835;81;21096;-74
2021/01/13 10:44:32;;;;;;;7.40;3.75;;;;;;;1.35;67.77;97270.84;1759871;80;21104;-74
2021/01/13 10:47:07;;;;;;;48.68;25.55;;;;;;;1.32;67.43;97270.00;1759762;81;21037;-74
2021/01/13 10:49:38;;;;;;;8.45;5.05;;;;;;;1.29;68.19;97267.81;1759883;81;21127;-74
2021/01/13 10:52:21;;;;;;;6.50;3.45;;;;;;;1.20;68.57;97268.41;1759853;81;21196;-73
2021/01/13 10:54:54;;;;;;;8.75;4.55;;;;;;;1.16;69.19;97267.27;1759722;81;21077;-73
2021/01/13 10:57:30;;;;;;;19.30;9.30;;;;;;;1.11;69.70;97275.48;1759713;80;21136;-73
2021/01/13 11:00:09;;;;;;;13.45;6.33;;;;;;;1.04;69.67;97271.33;1759774;81;21089;-73
2021/01/13 11:02:35;;;;;;;;;;;;;;;1.08;70.05;97269.80;1761962;80;21414;-73
2021/01/13 11:05:02;;;;;;;22.05;10.60;;;;;;;1.19;71.14;97256.92;1759775;81;21184;-73
2021/01/13 11:07:39;;;;;;;42.53;21.12;;;;;;;1.32;70.45;97263.33;1759628;80;21195;-74
2021/01/13 11:10:10;;;;;;;29.60;16.55;;;;;;;1.44;70.54;97261.12;1759854;81;21085;-74
2021/01/13 11:12:36;;;;;;;53.45;28.00;;;;;;;1.43;70.32;97257.64;1710557;81;21077;-74
2021/01/13 11:15:07;;;;;;;38.33;19.52;;;;;;;1.40;70.81;97257.60;1759805;81;21124;-73
2021/01/13 11:17:35;;;;;;;29.92;12.80;;;;;;;1.44;70.79;97251.77;1759720;80;21458;-74
2021/01/13 11:20:04;;;;;;;38.13;23.77;;;;;;;1.35;71.06;97259.36;1759708;81;21112;-73
2021/01/13 11:25:39;;;;;;;59.20;23.57;;;;;;;1.20;71.82;97248.39;1890184;75;22632;-72
2021/01/13 11:28:07;;;;;;;28.55;13.45;;;;;;;1.10;71.72;97237.00;1847621;77;20885;-73
2021/01/13 11:30:39;;;;;;;39.67;14.35;;;;;;;0.97;71.92;97234.63;1827459;78;21191;-73
2021/01/13 11:33:08;;;;;;;38.40;19.25;;;;;;;0.84;72.10;97240.51;1827261;77;21030;-73
2021/01/13 11:35:37;;;;;;;23.95;11.95;;;;;;;0.73;72.53;97241.88;1827526;78;20971;-73
2021/01/13 11:38:31;;;;;;;21.60;12.70;;;;;;;0.64;73.06;97245.96;1827390;77;21023;-73
2021/01/13 11:41:23;;;;;;;22.80;11.95;;;;;;;0.56;73.29;97253.80;1827407;78;21452;-73
2021/01/13 11:44:29;;;;;;;24.72;11.05;;;;;;;0.46;74.09;97252.25;1827253;77;22134;-74
2021/01/13 11:47:20;;;;;;;50.00;24.52;;;;;;;0.46;73.76;97239.73;1827255;78;20979;-74
2021/01/13 11:49:57;;;;;;;46.80;25.15;;;;;;;0.31;74.54;97226.59;1827308;78;21487;-74
2021/01/13 11:52:29;;;;;;;42.62;21.35;;;;;;;0.34;74.99;97226.92;1827313;77;21452;-74
2021/01/13 11:54:56;;;;;;;43.05;18.57;;;;;;;0.36;74.57;97215.53;1827175;78;21400;-74
2021/01/13 11:57:28;;;;;;;32.75;17.00;;;;;;;0.30;74.72;97213.79;1827281;77;22070;-74
2021/01/13 11:59:58;;;;;;;76.25;27.80;;;;;;;0.31;75.18;97223.41;1827256;78;21062;-74
2021/01/13 12:02:30;;;;;;;29.48;15.40;;;;;;;0.32;75.55;97222.88;1817183;77;21064;-74
2021/01/13 12:04:56;;;;;;;55.73;22.37;;;;;;;0.35;75.36;97227.77;1827253;78;21031;-74
2021/01/13 12:07:22;;;;;;;47.25;20.00;;;;;;;0.31;75.52;97222.59;1827408;77;20998;-74
2021/01/13 12:10:13;;;;;;;32.33;13.95;;;;;;;0.28;75.57;97225.21;1827280;78;21190;-74